PWSweather.com
Personal Weather Stations
Station Observations
WATERF01
WaterfordIE

WaterfordIE

Lat: 52.2412507, Lon: -7.1414691

Elevation: 65

Station Type: Davis Vantage Vue

Latest ConditionsUpdated 1:20:01 PM GMT Monday, Dec 22, 2014
Currently Today's Max Today's Min Today's Average
Temperature 54.1°F12.3°C 55.0°F12.8°C 52.7°F11.5°C 53.8°F12.1°C
Dew Point 50.6°F10.3°C 51.3°F10.7°C 49.9°F9.9°C 50.6°F10.3°C
Winds 6.9 mph W11.1 kmh W 18.4 mph WNW29.6 kmh WNW - 10.9 mph 17.5 kmh
Wind Gusts 13.8 mph22.2 kmh 25.3 mph40.7 kmh - -
Humidity 88% 92% 86% 89%
Pressure 29.94 in1013.9 mb 30.03 in1016.9 mb 29.93 in1013.5 mb -
Hour Temp Dew Point Humidity Winds Wind Gusts Pressure Precip Precip Rate Daily Precip Total
01:20 PM 54.1°F12.3°C 50.6°F10.3°C 88% 6.9 mph W11.1 kmh W 13.8 mph22.2 kmh 29.94 in1013.9 mb 0.00 in0.0 mm 0.00 in/hr0.0 mm/hr 0.00 in0.0 mm
01:10 PM 54.1°F12.3°C 50.6°F10.3°C 88% 9.2 mph W14.8 kmh W 15.0 mph24.1 kmh 29.94 in1013.9 mb 0.00 in0.0 mm 0.00 in/hr0.0 mm/hr 0.00 in0.0 mm
01:00 PM 54.0°F12.2°C 50.5°F10.3°C 88% 9.2 mph NW14.8 kmh NW 15.0 mph24.1 kmh 29.94 in1013.9 mb 0.00 in0.0 mm 0.00 in/hr0.0 mm/hr 0.00 in0.0 mm
12:50 PM 53.9°F12.2°C 50.4°F10.2°C 88% 12.7 mph W20.4 kmh W 20.7 mph33.3 kmh 29.94 in1013.9 mb 0.00 in0.0 mm 0.00 in/hr0.0 mm/hr 0.00 in0.0 mm
12:40 PM 54.1°F12.3°C 50.6°F10.3°C 88% 11.5 mph WSW18.5 kmh WSW 18.4 mph29.6 kmh 29.94 in1013.9 mb 0.00 in0.0 mm 0.00 in/hr0.0 mm/hr 0.00 in0.0 mm
12:30 PM 54.2°F12.3°C 50.7°F10.4°C 88% 12.7 mph SW20.4 kmh SW 19.6 mph31.5 kmh 29.94 in1013.9 mb 0.00 in0.0 mm 0.00 in/hr0.0 mm/hr 0.00 in0.0 mm
12:20 PM 54.6°F12.6°C 50.8°F10.4°C 87% 11.5 mph WSW18.5 kmh WSW 16.1 mph25.9 kmh 29.94 in1013.9 mb 0.00 in0.0 mm 0.00 in/hr0.0 mm/hr 0.00 in0.0 mm
12:10 PM 54.7°F12.6°C 50.9°F10.5°C 87% 10.4 mph WSW16.7 kmh WSW 20.7 mph33.3 kmh 29.95 in1014.2 mb 0.00 in0.0 mm 0.00 in/hr0.0 mm/hr 0.00 in0.0 mm
12:00 PM 54.5°F12.5°C 50.7°F10.4°C 87% 8.1 mph WSW13.0 kmh WSW 12.7 mph20.4 kmh 29.95 in1014.2 mb 0.00 in0.0 mm 0.00 in/hr0.0 mm/hr 0.00 in0.0 mm
11:50 AM 54.6°F12.6°C 50.8°F10.4°C 87% 8.1 mph WSW13.0 kmh WSW 12.7 mph20.4 kmh 29.95 in1014.2 mb 0.00 in0.0 mm 0.00 in/hr0.0 mm/hr 0.00 in0.0 mm
11:40 AM 55.0°F12.8°C 51.2°F10.7°C 87% 9.2 mph WSW14.8 kmh WSW 15.0 mph24.1 kmh 29.95 in1014.2 mb 0.00 in0.0 mm 0.00 in/hr0.0 mm/hr 0.00 in0.0 mm
11:30 AM 54.6°F12.6°C 51.1°F10.6°C 88% 11.5 mph W18.5 kmh W 20.7 mph33.3 kmh 29.95 in1014.2 mb 0.00 in0.0 mm 0.00 in/hr0.0 mm/hr 0.00 in0.0 mm
11:20 AM 54.4°F12.4°C 50.9°F10.5°C 88% 10.4 mph WSW16.7 kmh WSW 16.1 mph25.9 kmh 29.95 in1014.2 mb 0.00 in0.0 mm 0.00 in/hr0.0 mm/hr 0.00 in0.0 mm
11:10 AM 54.4°F12.4°C 50.9°F10.5°C 88% 12.7 mph WSW20.4 kmh WSW 18.4 mph29.6 kmh 29.96 in1014.6 mb 0.00 in0.0 mm 0.00 in/hr0.0 mm/hr 0.00 in0.0 mm
11:00 AM 54.1°F12.3°C 50.9°F10.5°C 89% 18.4 mph WNW29.6 kmh WNW 25.3 mph40.7 kmh 29.95 in1014.2 mb 0.00 in0.0 mm 0.00 in/hr0.0 mm/hr 0.00 in0.0 mm
10:50 AM 53.9°F12.2°C 51.0°F10.6°C 90% 10.4 mph W16.7 kmh W 19.6 mph31.5 kmh 29.95 in1014.2 mb 0.00 in0.0 mm 0.00 in/hr0.0 mm/hr 0.00 in0.0 mm
10:40 AM 53.7°F12.1°C 50.9°F10.5°C 90% 11.5 mph WSW18.5 kmh WSW 21.9 mph35.2 kmh 29.95 in1014.2 mb 0.00 in0.0 mm 0.00 in/hr0.0 mm/hr 0.00 in0.0 mm
10:30 AM 53.6°F12.0°C 51.0°F10.6°C 91% 15.0 mph WSW24.1 kmh WSW 23.0 mph37.0 kmh 29.95 in1014.2 mb 0.00 in0.0 mm 0.00 in/hr0.0 mm/hr 0.00 in0.0 mm
10:20 AM 53.6°F12.0°C 51.0°F10.6°C 91% 11.5 mph WSW18.5 kmh WSW 16.1 mph25.9 kmh 29.95 in1014.2 mb 0.00 in0.0 mm 0.00 in/hr0.0 mm/hr 0.00 in0.0 mm
10:10 AM 53.6°F12.0°C 51.0°F10.6°C 91% 10.4 mph WSW16.7 kmh WSW 18.4 mph29.6 kmh 29.95 in1014.2 mb 0.00 in0.0 mm 0.00 in/hr0.0 mm/hr 0.00 in0.0 mm
10:00 AM 53.8°F12.1°C 51.0°F10.6°C 90% 11.5 mph WSW18.5 kmh WSW 18.4 mph29.6 kmh 29.95 in1014.2 mb 0.00 in0.0 mm 0.00 in/hr0.0 mm/hr 0.00 in0.0 mm
09:50 AM 54.2°F12.3°C 51.3°F10.7°C 90% 9.2 mph W14.8 kmh W 19.6 mph31.5 kmh 29.95 in1014.2 mb 0.00 in0.0 mm 0.00 in/hr0.0 mm/hr 0.00 in0.0 mm
09:40 AM 54.0°F12.2°C 51.1°F10.6°C 90% 11.5 mph WSW18.5 kmh WSW 19.6 mph31.5 kmh 29.95 in1014.2 mb 0.00 in0.0 mm 0.00 in/hr0.0 mm/hr 0.00 in0.0 mm
09:30 AM 53.9°F12.2°C 51.0°F10.6°C 90% 10.4 mph SW16.7 kmh SW 20.7 mph33.3 kmh 29.95 in1014.2 mb 0.00 in0.0 mm 0.00 in/hr0.0 mm/hr 0.00 in0.0 mm
09:20 AM 53.8°F12.1°C 51.2°F10.7°C 91% 9.2 mph NW14.8 kmh NW 16.1 mph25.9 kmh 29.95 in1014.2 mb 0.00 in0.0 mm 0.00 in/hr0.0 mm/hr 0.00 in0.0 mm
09:10 AM 53.6°F12.0°C 51.0°F10.6°C 91% 10.4 mph W16.7 kmh W 16.1 mph25.9 kmh 29.95 in1014.2 mb 0.00 in0.0 mm 0.00 in/hr0.0 mm/hr 0.00 in0.0 mm
09:00 AM 53.5°F11.9°C 50.9°F10.5°C 91% 12.7 mph WNW20.4 kmh WNW 19.6 mph31.5 kmh 29.95 in1014.2 mb 0.00 in0.0 mm 0.00 in/hr0.0 mm/hr 0.00 in0.0 mm
08:50 AM 53.6°F12.0°C 51.0°F10.6°C 91% 8.1 mph WSW13.0 kmh WSW 16.1 mph25.9 kmh 29.95 in1014.2 mb 0.00 in0.0 mm 0.00 in/hr0.0 mm/hr 0.00 in0.0 mm
08:40 AM 53.6°F12.0°C 51.0°F10.6°C 91% 11.5 mph SW18.5 kmh SW 20.7 mph33.3 kmh 29.95 in1014.2 mb 0.00 in0.0 mm 0.00 in/hr0.0 mm/hr 0.00 in0.0 mm
08:30 AM 53.4°F11.9°C 50.8°F10.4°C 91% 11.5 mph NNW18.5 kmh NNW 19.6 mph31.5 kmh 29.95 in1014.2 mb 0.00 in0.0 mm 0.00 in/hr0.0 mm/hr 0.00 in0.0 mm
08:20 AM 53.2°F11.8°C 50.9°F10.5°C 92% 13.8 mph WNW22.2 kmh WNW 21.9 mph35.2 kmh 29.95 in1014.2 mb 0.00 in0.0 mm 0.00 in/hr0.0 mm/hr 0.00 in0.0 mm
08:10 AM 52.9°F11.6°C 50.6°F10.3°C 92% 13.8 mph WNW22.2 kmh WNW 25.3 mph40.7 kmh 29.94 in1013.9 mb 0.00 in0.0 mm 0.00 in/hr0.0 mm/hr 0.00 in0.0 mm
08:00 AM 52.8°F11.6°C 50.5°F10.3°C 92% 12.7 mph WNW20.4 kmh WNW 19.6 mph31.5 kmh 29.95 in1014.2 mb 0.00 in0.0 mm 0.00 in/hr0.0 mm/hr 0.00 in0.0 mm
07:50 AM 52.9°F11.6°C 50.6°F10.3°C 92% 12.7 mph W20.4 kmh W 18.4 mph29.6 kmh 29.94 in1013.9 mb 0.00 in0.0 mm 0.00 in/hr0.0 mm/hr 0.00 in0.0 mm
07:40 AM 52.8°F11.6°C 50.5°F10.3°C 92% 13.8 mph W22.2 kmh W 21.9 mph35.2 kmh 29.94 in1013.9 mb 0.00 in0.0 mm 0.00 in/hr0.0 mm/hr 0.00 in0.0 mm
07:30 AM 52.7°F11.5°C 50.4°F10.2°C 92% 15.0 mph SW24.1 kmh SW 21.9 mph35.2 kmh 29.94 in1013.9 mb 0.00 in0.0 mm 0.00 in/hr0.0 mm/hr 0.00 in0.0 mm
07:20 AM 52.7°F11.5°C 50.5°F10.3°C 92% 12.7 mph W20.4 kmh W 21.9 mph35.2 kmh 29.94 in1013.9 mb 0.00 in0.0 mm 0.00 in/hr0.0 mm/hr 0.00 in0.0 mm
07:10 AM 52.9°F11.6°C 50.4°F10.2°C 91% 13.8 mph WSW22.2 kmh WSW 20.7 mph33.3 kmh 29.94 in1013.9 mb 0.00 in0.0 mm 0.00 in/hr0.0 mm/hr 0.00 in0.0 mm
07:00 AM 53.1°F11.7°C 50.5°F10.3°C 91% 12.7 mph NW20.4 kmh NW 19.6 mph31.5 kmh 29.94 in1013.9 mb 0.00 in0.0 mm 0.00 in/hr0.0 mm/hr 0.00 in0.0 mm
06:50 AM 53.1°F11.7°C 50.6°F10.3°C 91% 13.8 mph W22.2 kmh W 23.0 mph37.0 kmh 29.93 in1013.5 mb 0.00 in0.0 mm 0.00 in/hr0.0 mm/hr 0.00 in0.0 mm
06:40 AM 53.1°F11.7°C 50.5°F10.3°C 91% 13.8 mph W22.2 kmh W 25.3 mph40.7 kmh 29.94 in1013.9 mb 0.00 in0.0 mm 0.00 in/hr0.0 mm/hr 0.00 in0.0 mm
06:30 AM 52.9°F11.6°C 50.3°F10.2°C 91% 11.5 mph SW18.5 kmh SW 18.4 mph29.6 kmh 29.94 in1013.9 mb 0.00 in0.0 mm 0.00 in/hr0.0 mm/hr 0.00 in0.0 mm
06:20 AM 52.8°F11.6°C 50.2°F10.1°C 91% 17.3 mph WNW27.8 kmh WNW 25.3 mph40.7 kmh 29.94 in1013.9 mb 0.00 in0.0 mm 0.00 in/hr0.0 mm/hr 0.00 in0.0 mm
06:10 AM 53.1°F11.7°C 50.5°F10.3°C 91% 9.2 mph W14.8 kmh W 19.6 mph31.5 kmh 29.94 in1013.9 mb 0.00 in0.0 mm 0.00 in/hr0.0 mm/hr 0.00 in0.0 mm
06:00 AM 53.2°F11.8°C 50.4°F10.2°C 90% 9.2 mph W14.8 kmh W 16.1 mph25.9 kmh 29.95 in1014.2 mb 0.00 in0.0 mm 0.00 in/hr0.0 mm/hr 0.00 in0.0 mm
05:50 AM 53.2°F11.8°C 50.3°F10.2°C 90% 10.4 mph WNW16.7 kmh WNW 15.0 mph24.1 kmh 29.95 in1014.2 mb 0.00 in0.0 mm 0.00 in/hr0.0 mm/hr 0.00 in0.0 mm
05:40 AM 53.4°F11.9°C 50.2°F10.1°C 89% 9.2 mph WNW14.8 kmh WNW 16.1 mph25.9 kmh 29.95 in1014.2 mb 0.00 in0.0 mm 0.00 in/hr0.0 mm/hr 0.00 in0.0 mm
05:30 AM 53.4°F11.9°C 50.2°F10.1°C 89% 12.7 mph W20.4 kmh W 20.7 mph33.3 kmh 29.94 in1013.9 mb 0.00 in0.0 mm 0.00 in/hr0.0 mm/hr 0.00 in0.0 mm
05:20 AM 53.4°F11.9°C 50.2°F10.1°C 89% 11.5 mph WNW18.5 kmh WNW 16.1 mph25.9 kmh 29.94 in1013.9 mb 0.00 in0.0 mm 0.00 in/hr0.0 mm/hr 0.00 in0.0 mm
05:10 AM 53.4°F11.9°C 50.2°F10.1°C 89% 13.8 mph W22.2 kmh W 24.2 mph38.9 kmh 29.94 in1013.9 mb 0.00 in0.0 mm 0.00 in/hr0.0 mm/hr 0.00 in0.0 mm
05:00 AM 53.4°F11.9°C 50.2°F10.1°C 89% 10.4 mph W16.7 kmh W 19.6 mph31.5 kmh 29.95 in1014.2 mb 0.00 in0.0 mm 0.00 in/hr0.0 mm/hr 0.00 in0.0 mm
04:50 AM 53.3°F11.8°C 50.1°F10.1°C 89% 6.9 mph W11.1 kmh W 11.5 mph18.5 kmh 29.95 in1014.2 mb 0.00 in0.0 mm 0.00 in/hr0.0 mm/hr 0.00 in0.0 mm
04:40 AM 53.4°F11.9°C 50.2°F10.1°C 89% 9.2 mph W14.8 kmh W 19.6 mph31.5 kmh 29.95 in1014.2 mb 0.00 in0.0 mm 0.00 in/hr0.0 mm/hr 0.00 in0.0 mm
04:30 AM 53.7°F12.1°C 49.9°F9.9°C 87% 9.2 mph SE14.8 kmh SE 13.8 mph22.2 kmh 29.95 in1014.2 mb 0.00 in0.0 mm 0.00 in/hr0.0 mm/hr 0.00 in0.0 mm
04:20 AM 53.9°F12.2°C 50.1°F10.1°C 87% 10.4 mph W16.7 kmh W 15.0 mph24.1 kmh 29.95 in1014.2 mb 0.00 in0.0 mm 0.00 in/hr0.0 mm/hr 0.00 in0.0 mm
04:10 AM 54.0°F12.2°C 49.9°F9.9°C 86% 9.2 mph W14.8 kmh W 16.1 mph25.9 kmh 29.96 in1014.6 mb 0.00 in0.0 mm 0.00 in/hr0.0 mm/hr 0.00 in0.0 mm
04:00 AM 54.1°F12.3°C 50.0°F10.0°C 86% 9.2 mph W14.8 kmh W 19.6 mph31.5 kmh 29.96 in1014.6 mb 0.00 in0.0 mm 0.00 in/hr0.0 mm/hr 0.00 in0.0 mm
03:50 AM 54.0°F12.2°C 50.2°F10.1°C 87% 12.7 mph W20.4 kmh W 19.6 mph31.5 kmh 29.96 in1014.6 mb 0.00 in0.0 mm 0.00 in/hr0.0 mm/hr 0.00 in0.0 mm
03:40 AM 54.1°F12.3°C 50.3°F10.2°C 87% 10.4 mph W16.7 kmh W 18.4 mph29.6 kmh 29.97 in1014.9 mb 0.00 in0.0 mm 0.00 in/hr0.0 mm/hr 0.00 in0.0 mm
03:30 AM 54.0°F12.2°C 50.2°F10.1°C 87% 12.7 mph WNW20.4 kmh WNW 19.6 mph31.5 kmh 29.97 in1014.9 mb 0.00 in0.0 mm 0.00 in/hr0.0 mm/hr 0.00 in0.0 mm
03:20 AM 53.8°F12.1°C 50.0°F10.0°C 87% 11.5 mph WSW18.5 kmh WSW 21.9 mph35.2 kmh 29.98 in1015.2 mb 0.00 in0.0 mm 0.00 in/hr0.0 mm/hr 0.00 in0.0 mm
03:10 AM 53.9°F12.2°C 50.1°F10.1°C 87% 8.1 mph W13.0 kmh W 11.5 mph18.5 kmh 29.97 in1014.9 mb 0.00 in0.0 mm 0.00 in/hr0.0 mm/hr 0.00 in0.0 mm
03:00 AM 54.0°F12.2°C 50.3°F10.2°C 87% 10.4 mph W16.7 kmh W 16.1 mph25.9 kmh 29.97 in1014.9 mb 0.00 in0.0 mm 0.00 in/hr0.0 mm/hr 0.00 in0.0 mm
02:50 AM 54.1°F12.3°C 50.3°F10.2°C 87% 10.4 mph WNW16.7 kmh WNW 19.6 mph31.5 kmh 29.97 in1014.9 mb 0.00 in0.0 mm 0.00 in/hr0.0 mm/hr 0.00 in0.0 mm
02:40 AM 54.2°F12.3°C 50.4°F10.2°C 87% 11.5 mph WNW18.5 kmh WNW 19.6 mph31.5 kmh 29.98 in1015.2 mb 0.00 in0.0 mm 0.00 in/hr0.0 mm/hr 0.00 in0.0 mm
02:30 AM 54.4°F12.4°C 50.3°F10.2°C 86% 13.8 mph W22.2 kmh W 25.3 mph40.7 kmh 29.98 in1015.2 mb 0.00 in0.0 mm 0.00 in/hr0.0 mm/hr 0.00 in0.0 mm
02:20 AM 54.4°F12.4°C 50.3°F10.2°C 86% 13.8 mph W22.2 kmh W 25.3 mph40.7 kmh 29.98 in1015.2 mb 0.00 in0.0 mm 0.00 in/hr0.0 mm/hr 0.00 in0.0 mm
02:10 AM 54.5°F12.5°C 50.4°F10.2°C 86% 10.4 mph W16.7 kmh W 16.1 mph25.9 kmh 29.98 in1015.2 mb 0.00 in0.0 mm 0.00 in/hr0.0 mm/hr 0.00 in0.0 mm
02:00 AM 54.6°F12.6°C 50.5°F10.3°C 86% 9.2 mph WNW14.8 kmh WNW 16.1 mph25.9 kmh 29.99 in1015.6 mb 0.00 in0.0 mm 0.00 in/hr0.0 mm/hr 0.00 in0.0 mm
01:50 AM 54.7°F12.6°C 50.9°F10.5°C 87% 9.2 mph WNW14.8 kmh WNW 20.7 mph33.3 kmh 29.99 in1015.6 mb 0.00 in0.0 mm 0.00 in/hr0.0 mm/hr 0.00 in0.0 mm
01:40 AM 54.8°F12.7°C 50.7°F10.4°C 86% 6.9 mph WNW11.1 kmh WNW 11.5 mph18.5 kmh 29.99 in1015.6 mb 0.00 in0.0 mm 0.00 in/hr0.0 mm/hr 0.00 in0.0 mm
01:30 AM 54.9°F12.7°C 50.8°F10.4°C 86% 11.5 mph NW18.5 kmh NW 19.6 mph31.5 kmh 30.00 in1015.9 mb 0.00 in0.0 mm 0.00 in/hr0.0 mm/hr 0.00 in0.0 mm
01:20 AM 54.9°F12.7°C 50.8°F10.4°C 86% 12.7 mph W20.4 kmh W 23.0 mph37.0 kmh 30.00 in1015.9 mb 0.00 in0.0 mm 0.00 in/hr0.0 mm/hr 0.00 in0.0 mm
01:10 AM 55.0°F12.8°C 50.9°F10.5°C 86% 8.1 mph W13.0 kmh W 13.8 mph22.2 kmh 30.00 in1015.9 mb 0.00 in0.0 mm 0.00 in/hr0.0 mm/hr 0.00 in0.0 mm
01:00 AM 54.8°F12.7°C 51.0°F10.6°C 87% 13.8 mph W22.2 kmh W 20.7 mph33.3 kmh 30.01 in1016.3 mb 0.00 in0.0 mm 0.00 in/hr0.0 mm/hr 0.00 in0.0 mm
12:50 AM 54.6°F12.6°C 51.2°F10.7°C 88% 10.4 mph WSW16.7 kmh WSW 16.1 mph25.9 kmh 30.02 in1016.6 mb 0.00 in0.0 mm 0.00 in/hr0.0 mm/hr 0.00 in0.0 mm
12:40 AM 54.4°F12.4°C 51.2°F10.7°C 89% 9.2 mph WSW14.8 kmh WSW 13.8 mph22.2 kmh 30.03 in1016.9 mb 0.00 in0.0 mm 0.00 in/hr0.0 mm/hr 0.00 in0.0 mm
12:30 AM 53.9°F12.2°C 51.0°F10.6°C 90% 6.9 mph SW11.1 kmh SW 13.8 mph22.2 kmh 30.03 in1016.9 mb 0.00 in0.0 mm 0.00 in/hr0.0 mm/hr 0.00 in0.0 mm
12:20 AM 53.8°F12.1°C 51.2°F10.7°C 91% 5.8 mph WSW9.3 kmh WSW 8.1 mph13.0 kmh 30.03 in1016.9 mb 0.00 in0.0 mm 0.00 in/hr0.0 mm/hr 0.00 in0.0 mm
12:10 AM 53.5°F11.9°C 51.3°F10.7°C 92% 6.9 mph W11.1 kmh W 12.7 mph20.4 kmh 30.03 in1016.9 mb 0.00 in0.0 mm 0.00 in/hr0.0 mm/hr 0.00 in0.0 mm
12:00 AM 53.3°F11.8°C 51.0°F10.6°C 92% 2.3 mph WNW3.7 kmh WNW 6.9 mph11.1 kmh 30.03 in1016.9 mb 0.00 in0.0 mm 0.00 in/hr0.0 mm/hr 0.00 in0.0 mm